sensor_id;sensor_type;location;lat;lon;timestamp;pressure;altitude;pressure_sealevel;temperature
9119;BMP180;4594;50.994;7.126;2023-11-21T00:01:57;100015.00;;;14.00
9119;BMP180;4594;50.994;7.126;2023-11-21T00:04:24;100012.00;;;14.00
9119;BMP180;4594;50.994;7.126;2023-11-21T00:06:51;100033.00;;;14.00
9119;BMP180;4594;50.994;7.126;2023-11-21T00:09:16;100014.00;;;14.00
9119;BMP180;4594;50.994;7.126;2023-11-21T00:11:43;100028.00;;;14.00
9119;BMP180;4594;50.994;7.126;2023-11-21T00:14:11;100027.00;;;14.00
9119;BMP180;4594;50.994;7.126;2023-11-21T00:16:36;100025.00;;;14.00
9119;BMP180;4594;50.994;7.126;2023-11-21T00:19:02;100018.00;;;13.90
9119;BMP180;4594;50.994;7.126;2023-11-21T00:21:28;100024.00;;;13.90
9119;BMP180;4594;50.994;7.126;2023-11-21T00:23:54;100002.00;;;13.90
9119;BMP180;4594;50.994;7.126;2023-11-21T00:26:19;100030.00;;;13.90
9119;BMP180;4594;50.994;7.126;2023-11-21T00:28:45;100025.00;;;13.90
9119;BMP180;4594;50.994;7.126;2023-11-21T00:31:11;100009.00;;;13.90
9119;BMP180;4594;50.994;7.126;2023-11-21T00:33:37;100040.00;;;13.90
9119;BMP180;4594;50.994;7.126;2023-11-21T00:36:03;100025.00;;;13.90
9119;BMP180;4594;50.994;7.126;2023-11-21T00:38:28;100029.00;;;13.90
9119;BMP180;4594;50.994;7.126;2023-11-21T00:40:54;100024.00;;;13.90
9119;BMP180;4594;50.994;7.126;2023-11-21T00:43:24;100059.00;;;13.90
9119;BMP180;4594;50.994;7.126;2023-11-21T00:45:50;100033.00;;;13.90
9119;BMP180;4594;50.994;7.126;2023-11-21T00:48:16;100044.00;;;13.80
9119;BMP180;4594;50.994;7.126;2023-11-21T00:50:44;100033.00;;;13.80
9119;BMP180;4594;50.994;7.126;2023-11-21T00:53:09;100050.00;;;13.80
9119;BMP180;4594;50.994;7.126;2023-11-21T00:55:37;100033.00;;;13.80
9119;BMP180;4594;50.994;7.126;2023-11-21T00:58:06;100051.00;;;13.80
9119;BMP180;4594;50.994;7.126;2023-11-21T01:00:33;100054.00;;;13.80
9119;BMP180;4594;50.994;7.126;2023-11-21T01:03:00;100042.00;;;13.80
9119;BMP180;4594;50.994;7.126;2023-11-21T01:05:25;100041.00;;;13.80
9119;BMP180;4594;50.994;7.126;2023-11-21T01:07:52;100047.00;;;13.80
9119;BMP180;4594;50.994;7.126;2023-11-21T01:10:18;100049.00;;;13.80
9119;BMP180;4594;50.994;7.126;2023-11-21T01:12:44;100076.00;;;13.70
9119;BMP180;4594;50.994;7.126;2023-11-21T01:15:09;100064.00;;;13.70
9119;BMP180;4594;50.994;7.126;2023-11-21T01:17:37;100063.00;;;13.70
9119;BMP180;4594;50.994;7.126;2023-11-21T01:20:04;100051.00;;;13.70
9119;BMP180;4594;50.994;7.126;2023-11-21T01:22:36;100069.00;;;13.60
9119;BMP180;4594;50.994;7.126;2023-11-21T01:25:02;100084.00;;;13.70
9119;BMP180;4594;50.994;7.126;2023-11-21T01:27:30;100080.00;;;13.70
9119;BMP180;4594;50.994;7.126;2023-11-21T01:29:55;100073.00;;;13.70
9119;BMP180;4594;50.994;7.126;2023-11-21T01:32:21;100077.00;;;13.70
9119;BMP180;4594;50.994;7.126;2023-11-21T01:34:49;100074.00;;;13.70
9119;BMP180;4594;50.994;7.126;2023-11-21T01:37:15;100076.00;;;13.70
9119;BMP180;4594;50.994;7.126;2023-11-21T01:39:43;100088.00;;;13.70
9119;BMP180;4594;50.994;7.126;2023-11-21T01:42:09;100079.00;;;13.60
9119;BMP180;4594;50.994;7.126;2023-11-21T01:44:36;100092.00;;;13.60
9119;BMP180;4594;50.994;7.126;2023-11-21T01:47:02;100092.00;;;13.60
9119;BMP180;4594;50.994;7.126;2023-11-21T01:49:32;100083.00;;;13.60
9119;BMP180;4594;50.994;7.126;2023-11-21T01:51:59;100082.00;;;13.60
9119;BMP180;4594;50.994;7.126;2023-11-21T01:54:25;100098.00;;;13.60
9119;BMP180;4594;50.994;7.126;2023-11-21T01:56:51;100096.00;;;13.60
9119;BMP180;4594;50.994;7.126;2023-11-21T01:59:21;100094.00;;;13.60
9119;BMP180;4594;50.994;7.126;2023-11-21T02:01:47;100099.00;;;13.50
9119;BMP180;4594;50.994;7.126;2023-11-21T02:04:13;100073.00;;;13.50
9119;BMP180;4594;50.994;7.126;2023-11-21T02:06:39;100104.00;;;13.40
9119;BMP180;4594;50.994;7.126;2023-11-21T02:09:05;100093.00;;;13.30
9119;BMP180;4594;50.994;7.126;2023-11-21T02:11:31;100094.00;;;13.30
9119;BMP180;4594;50.994;7.126;2023-11-21T02:13:59;100106.00;;;13.20
9119;BMP180;4594;50.994;7.126;2023-11-21T02:16:26;100118.00;;;13.10
9119;BMP180;4594;50.994;7.126;2023-11-21T02:18:53;100122.00;;;13.00
9119;BMP180;4594;50.994;7.126;2023-11-21T02:21:18;100124.00;;;13.00
9119;BMP180;4594;50.994;7.126;2023-11-21T02:23:47;100120.00;;;13.00
9119;BMP180;4594;50.994;7.126;2023-11-21T02:26:13;100126.00;;;13.00
9119;BMP180;4594;50.994;7.126;2023-11-21T02:28:40;100128.00;;;12.90
9119;BMP180;4594;50.994;7.126;2023-11-21T02:31:05;100117.00;;;12.90
9119;BMP180;4594;50.994;7.126;2023-11-21T02:33:33;100125.00;;;12.90
9119;BMP180;4594;50.994;7.126;2023-11-21T02:36:03;100128.00;;;12.90
9119;BMP180;4594;50.994;7.126;2023-11-21T02:38:29;100107.00;;;12.90
9119;BMP180;4594;50.994;7.126;2023-11-21T02:40:57;100133.00;;;13.00
9119;BMP180;4594;50.994;7.126;2023-11-21T02:43:24;100132.00;;;13.00
9119;BMP180;4594;50.994;7.126;2023-11-21T02:45:50;100120.00;;;13.00
9119;BMP180;4594;50.994;7.126;2023-11-21T02:48:16;100130.00;;;13.00
9119;BMP180;4594;50.994;7.126;2023-11-21T02:50:41;100129.00;;;13.00
9119;BMP180;4594;50.994;7.126;2023-11-21T02:53:09;100120.00;;;13.00
9119;BMP180;4594;50.994;7.126;2023-11-21T02:55:36;100115.00;;;13.10
9119;BMP180;4594;50.994;7.126;2023-11-21T02:58:03;100121.00;;;13.10
9119;BMP180;4594;50.994;7.126;2023-11-21T03:00:31;100146.00;;;13.10
9119;BMP180;4594;50.994;7.126;2023-11-21T03:02:57;100138.00;;;13.10
9119;BMP180;4594;50.994;7.126;2023-11-21T03:05:23;100116.00;;;13.10
9119;BMP180;4594;50.994;7.126;2023-11-21T03:07:48;100131.00;;;13.10
9119;BMP180;4594;50.994;7.126;2023-11-21T03:10:14;100119.00;;;13.10
9119;BMP180;4594;50.994;7.126;2023-11-21T03:12:40;100135.00;;;13.20
9119;BMP180;4594;50.994;7.126;2023-11-21T03:15:09;100138.00;;;13.20
9119;BMP180;4594;50.994;7.126;2023-11-21T03:17:35;100135.00;;;13.20
9119;BMP180;4594;50.994;7.126;2023-11-21T03:20:01;100156.00;;;13.20
9119;BMP180;4594;50.994;7.126;2023-11-21T03:22:29;100162.00;;;13.30
9119;BMP180;4594;50.994;7.126;2023-11-21T03:24:55;100151.00;;;13.30
9119;BMP180;4594;50.994;7.126;2023-11-21T03:27:20;100162.00;;;13.30
9119;BMP180;4594;50.994;7.126;2023-11-21T03:29:48;100153.00;;;13.40
9119;BMP180;4594;50.994;7.126;2023-11-21T03:32:14;100168.00;;;13.40
9119;BMP180;4594;50.994;7.126;2023-11-21T03:34:58;100169.00;;;13.40
9119;BMP180;4594;50.994;7.126;2023-11-21T03:37:24;100173.00;;;13.40
9119;BMP180;4594;50.994;7.126;2023-11-21T03:39:50;100164.00;;;13.40
9119;BMP180;4594;50.994;7.126;2023-11-21T03:42:16;100181.00;;;13.40
9119;BMP180;4594;50.994;7.126;2023-11-21T03:44:42;100161.00;;;13.40
9119;BMP180;4594;50.994;7.126;2023-11-21T03:47:08;100180.00;;;13.40
9119;BMP180;4594;50.994;7.126;2023-11-21T03:49:33;100179.00;;;13.50
9119;BMP180;4594;50.994;7.126;2023-11-21T03:51:59;100179.00;;;13.50
9119;BMP180;4594;50.994;7.126;2023-11-21T03:54:25;100201.00;;;13.50
9119;BMP180;4594;50.994;7.126;2023-11-21T03:56:51;100182.00;;;13.50
9119;BMP180;4594;50.994;7.126;2023-11-21T03:59:17;100198.00;;;13.50
9119;BMP180;4594;50.994;7.126;2023-11-21T04:01:43;100192.00;;;13.50
9119;BMP180;4594;50.994;7.126;2023-11-21T04:04:09;100185.00;;;13.50
9119;BMP180;4594;50.994;7.126;2023-11-21T04:06:34;100212.00;;;13.50
9119;BMP180;4594;50.994;7.126;2023-11-21T04:09:01;100217.00;;;13.60
9119;BMP180;4594;50.994;7.126;2023-11-21T04:11:27;100210.00;;;13.50
9119;BMP180;4594;50.994;7.126;2023-11-21T04:13:55;100204.00;;;13.50
9119;BMP180;4594;50.994;7.126;2023-11-21T04:16:21;100207.00;;;13.50
9119;BMP180;4594;50.994;7.126;2023-11-21T04:18:46;100220.00;;;13.50
9119;BMP180;4594;50.994;7.126;2023-11-21T04:21:12;100224.00;;;13.50
9119;BMP180;4594;50.994;7.126;2023-11-21T04:23:38;100215.00;;;13.50
9119;BMP180;4594;50.994;7.126;2023-11-21T04:26:05;100229.00;;;13.50
9119;BMP180;4594;50.994;7.126;2023-11-21T04:28:31;100227.00;;;13.50
9119;BMP180;4594;50.994;7.126;2023-11-21T04:30:56;100221.00;;;13.50
9119;BMP180;4594;50.994;7.126;2023-11-21T04:33:22;100226.00;;;13.50
9119;BMP180;4594;50.994;7.126;2023-11-21T04:35:48;100201.00;;;13.50
9119;BMP180;4594;50.994;7.126;2023-11-21T04:38:14;100219.00;;;13.50
9119;BMP180;4594;50.994;7.126;2023-11-21T04:40:39;100199.00;;;13.50
9119;BMP180;4594;50.994;7.126;2023-11-21T04:43:05;100219.00;;;13.50
9119;BMP180;4594;50.994;7.126;2023-11-21T04:45:31;100219.00;;;13.50
9119;BMP180;4594;50.994;7.126;2023-11-21T04:47:56;100228.00;;;13.50
9119;BMP180;4594;50.994;7.126;2023-11-21T04:50:22;100218.00;;;13.50
9119;BMP180;4594;50.994;7.126;2023-11-21T04:52:48;100211.00;;;13.50
9119;BMP180;4594;50.994;7.126;2023-11-21T04:55:13;100220.00;;;13.50
9119;BMP180;4594;50.994;7.126;2023-11-21T04:57:40;100227.00;;;13.50
9119;BMP180;4594;50.994;7.126;2023-11-21T05:00:09;100235.00;;;13.60
9119;BMP180;4594;50.994;7.126;2023-11-21T05:02:35;100234.00;;;13.60
9119;BMP180;4594;50.994;7.126;2023-11-21T05:05:02;100217.00;;;13.60
9119;BMP180;4594;50.994;7.126;2023-11-21T05:07:27;100225.00;;;13.50
9119;BMP180;4594;50.994;7.126;2023-11-21T05:09:57;100247.00;;;13.50
9119;BMP180;4594;50.994;7.126;2023-11-21T05:12:24;100244.00;;;13.50
9119;BMP180;4594;50.994;7.126;2023-11-21T05:14:51;100243.00;;;13.50
9119;BMP180;4594;50.994;7.126;2023-11-21T05:17:17;100229.00;;;13.50
9119;BMP180;4594;50.994;7.126;2023-11-21T05:19:42;100254.00;;;13.40
9119;BMP180;4594;50.994;7.126;2023-11-21T05:22:10;100253.00;;;13.40
9119;BMP180;4594;50.994;7.126;2023-11-21T05:24:37;100250.00;;;13.40
9119;BMP180;4594;50.994;7.126;2023-11-21T05:27:05;100225.00;;;13.40
9119;BMP180;4594;50.994;7.126;2023-11-21T05:29:30;100259.00;;;13.30
9119;BMP180;4594;50.994;7.126;2023-11-21T05:31:56;100251.00;;;13.30
9119;BMP180;4594;50.994;7.126;2023-11-21T05:34:22;100240.00;;;13.30
9119;BMP180;4594;50.994;7.126;2023-11-21T05:36:50;100261.00;;;13.30
9119;BMP180;4594;50.994;7.126;2023-11-21T05:39:16;100274.00;;;13.30
9119;BMP180;4594;50.994;7.126;2023-11-21T05:41:45;100278.00;;;13.30
9119;BMP180;4594;50.994;7.126;2023-11-21T05:44:11;100276.00;;;13.30
9119;BMP180;4594;50.994;7.126;2023-11-21T05:46:37;100279.00;;;13.30
9119;BMP180;4594;50.994;7.126;2023-11-21T05:49:03;100272.00;;;13.30
9119;BMP180;4594;50.994;7.126;2023-11-21T05:51:29;100286.00;;;13.30
9119;BMP180;4594;50.994;7.126;2023-11-21T05:53:54;100282.00;;;13.30
9119;BMP180;4594;50.994;7.126;2023-11-21T05:56:20;100284.00;;;13.30
9119;BMP180;4594;50.994;7.126;2023-11-21T05:58:46;100303.00;;;13.30
9119;BMP180;4594;50.994;7.126;2023-11-21T06:01:11;100299.00;;;13.30
9119;BMP180;4594;50.994;7.126;2023-11-21T06:03:38;100294.00;;;13.30
9119;BMP180;4594;50.994;7.126;2023-11-21T06:06:05;100314.00;;;13.30
9119;BMP180;4594;50.994;7.126;2023-11-21T06:08:31;100308.00;;;13.30
9119;BMP180;4594;50.994;7.126;2023-11-21T06:10:56;100322.00;;;13.40
9119;BMP180;4594;50.994;7.126;2023-11-21T06:13:22;100308.00;;;13.40
9119;BMP180;4594;50.994;7.126;2023-11-21T06:15:50;100325.00;;;13.40
9119;BMP180;4594;50.994;7.126;2023-11-21T06:18:17;100317.00;;;13.40
9119;BMP180;4594;50.994;7.126;2023-11-21T06:20:45;100346.00;;;13.50
9119;BMP180;4594;50.994;7.126;2023-11-21T06:23:11;100307.00;;;13.50
9119;BMP180;4594;50.994;7.126;2023-11-21T06:25:37;100338.00;;;13.50
9119;BMP180;4594;50.994;7.126;2023-11-21T06:28:03;100334.00;;;13.50
9119;BMP180;4594;50.994;7.126;2023-11-21T06:30:29;100334.00;;;13.60
9119;BMP180;4594;50.994;7.126;2023-11-21T06:32:55;100355.00;;;13.60
9119;BMP180;4594;50.994;7.126;2023-11-21T06:35:22;100345.00;;;13.60
9119;BMP180;4594;50.994;7.126;2023-11-21T06:37:47;100351.00;;;13.60
9119;BMP180;4594;50.994;7.126;2023-11-21T06:40:14;100360.00;;;13.70
9119;BMP180;4594;50.994;7.126;2023-11-21T06:42:41;100354.00;;;13.70
9119;BMP180;4594;50.994;7.126;2023-11-21T06:45:07;100350.00;;;13.70
9119;BMP180;4594;50.994;7.126;2023-11-21T06:47:36;100365.00;;;13.70
9119;BMP180;4594;50.994;7.126;2023-11-21T06:50:04;100371.00;;;13.70
9119;BMP180;4594;50.994;7.126;2023-11-21T06:52:30;100369.00;;;13.70
9119;BMP180;4594;50.994;7.126;2023-11-21T06:54:55;100382.00;;;13.80
9119;BMP180;4594;50.994;7.126;2023-11-21T06:57:23;100377.00;;;13.80
9119;BMP180;4594;50.994;7.126;2023-11-21T06:59:49;100389.00;;;13.80
9119;BMP180;4594;50.994;7.126;2023-11-21T07:02:17;100398.00;;;13.90
9119;BMP180;4594;50.994;7.126;2023-11-21T07:04:47;100400.00;;;13.90
9119;BMP180;4594;50.994;7.126;2023-11-21T07:07:13;100398.00;;;13.90
9119;BMP180;4594;50.994;7.126;2023-11-21T07:09:39;100400.00;;;13.90
9119;BMP180;4594;50.994;7.126;2023-11-21T07:12:05;100413.00;;;13.90
9119;BMP180;4594;50.994;7.126;2023-11-21T07:14:34;100413.00;;;14.00
9119;BMP180;4594;50.994;7.126;2023-11-21T07:17:00;100406.00;;;14.00
9119;BMP180;4594;50.994;7.126;2023-11-21T07:19:25;100418.00;;;14.00
9119;BMP180;4594;50.994;7.126;2023-11-21T07:21:51;100431.00;;;14.10
9119;BMP180;4594;50.994;7.126;2023-11-21T07:24:17;100412.00;;;14.10
9119;BMP180;4594;50.994;7.126;2023-11-21T07:26:43;100427.00;;;14.10
9119;BMP180;4594;50.994;7.126;2023-11-21T07:29:08;100428.00;;;14.20
9119;BMP180;4594;50.994;7.126;2023-11-21T07:31:34;100441.00;;;14.20
9119;BMP180;4594;50.994;7.126;2023-11-21T07:34:00;100440.00;;;14.20
9119;BMP180;4594;50.994;7.126;2023-11-21T07:36:26;100452.00;;;14.30
9119;BMP180;4594;50.994;7.126;2023-11-21T07:38:53;100451.00;;;14.30
9119;BMP180;4594;50.994;7.126;2023-11-21T07:41:18;100454.00;;;14.30
9119;BMP180;4594;50.994;7.126;2023-11-21T07:43:45;100455.00;;;14.40
9119;BMP180;4594;50.994;7.126;2023-11-21T07:46:12;100459.00;;;14.40
9119;BMP180;4594;50.994;7.126;2023-11-21T07:48:39;100463.00;;;14.40
9119;BMP180;4594;50.994;7.126;2023-11-21T07:51:06;100407.00;;;14.50
9119;BMP180;4594;50.994;7.126;2023-11-21T07:53:35;100446.00;;;14.50
9119;BMP180;4594;50.994;7.126;2023-11-21T07:56:08;100466.00;;;14.50
9119;BMP180;4594;50.994;7.126;2023-11-21T07:58:35;100451.00;;;14.60
9119;BMP180;4594;50.994;7.126;2023-11-21T08:01:02;100461.00;;;14.60
9119;BMP180;4594;50.994;7.126;2023-11-21T08:03:30;100467.00;;;14.60
9119;BMP180;4594;50.994;7.126;2023-11-21T08:05:59;100446.00;;;14.70
9119;BMP180;4594;50.994;7.126;2023-11-21T08:08:25;100457.00;;;14.70
9119;BMP180;4594;50.994;7.126;2023-11-21T08:10:52;100465.00;;;14.80
9119;BMP180;4594;50.994;7.126;2023-11-21T08:13:28;100458.00;;;14.80
9119;BMP180;4594;50.994;7.126;2023-11-21T08:15:57;100476.00;;;14.90
9119;BMP180;4594;50.994;7.126;2023-11-21T08:18:27;100481.00;;;14.90
9119;BMP180;4594;50.994;7.126;2023-11-21T08:20:54;100469.00;;;15.00
9119;BMP180;4594;50.994;7.126;2023-11-21T08:23:21;100476.00;;;15.00
9119;BMP180;4594;50.994;7.126;2023-11-21T08:25:51;100501.00;;;15.10
9119;BMP180;4594;50.994;7.126;2023-11-21T08:28:17;100498.00;;;15.10
9119;BMP180;4594;50.994;7.126;2023-11-21T08:30:43;100497.00;;;15.20
9119;BMP180;4594;50.994;7.126;2023-11-21T08:33:09;100497.00;;;15.30
9119;BMP180;4594;50.994;7.126;2023-11-21T08:35:37;100507.00;;;15.30
9119;BMP180;4594;50.994;7.126;2023-11-21T08:38:03;100529.00;;;15.40
9119;BMP180;4594;50.994;7.126;2023-11-21T08:40:30;100517.00;;;15.40
9119;BMP180;4594;50.994;7.126;2023-11-21T08:42:56;100530.00;;;15.50
9119;BMP180;4594;50.994;7.126;2023-11-21T08:45:24;100519.00;;;15.50
9119;BMP180;4594;50.994;7.126;2023-11-21T08:47:51;100529.00;;;15.60
9119;BMP180;4594;50.994;7.126;2023-11-21T08:50:17;100531.00;;;15.60
9119;BMP180;4594;50.994;7.126;2023-11-21T08:52:45;100529.00;;;15.60
9119;BMP180;4594;50.994;7.126;2023-11-21T08:55:11;100542.00;;;15.70
9119;BMP180;4594;50.994;7.126;2023-11-21T08:57:39;100537.00;;;15.70
9119;BMP180;4594;50.994;7.126;2023-11-21T09:00:10;100546.00;;;15.80
9119;BMP180;4594;50.994;7.126;2023-11-21T09:02:45;100543.00;;;15.80
9119;BMP180;4594;50.994;7.126;2023-11-21T09:05:12;100543.00;;;15.80
9119;BMP180;4594;50.994;7.126;2023-11-21T09:07:41;100530.00;;;15.80
9119;BMP180;4594;50.994;7.126;2023-11-21T09:10:07;100548.00;;;15.90
9119;BMP180;4594;50.994;7.126;2023-11-21T09:12:35;100533.00;;;15.90
9119;BMP180;4594;50.994;7.126;2023-11-21T09:15:03;100554.00;;;15.90
9119;BMP180;4594;50.994;7.126;2023-11-21T09:17:30;100536.00;;;16.00
9119;BMP180;4594;50.994;7.126;2023-11-21T09:19:56;100548.00;;;16.00
9119;BMP180;4594;50.994;7.126;2023-11-21T09:22:22;100557.00;;;16.00
9119;BMP180;4594;50.994;7.126;2023-11-21T09:24:51;100557.00;;;16.00
9119;BMP180;4594;50.994;7.126;2023-11-21T09:27:16;100566.00;;;16.00
9119;BMP180;4594;50.994;7.126;2023-11-21T09:29:43;100557.00;;;16.00
9119;BMP180;4594;50.994;7.126;2023-11-21T09:32:09;100588.00;;;16.00
9119;BMP180;4594;50.994;7.126;2023-11-21T09:34:38;100577.00;;;16.00
9119;BMP180;4594;50.994;7.126;2023-11-21T09:37:04;100576.00;;;16.00
9119;BMP180;4594;50.994;7.126;2023-11-21T09:39:35;100583.00;;;16.00
9119;BMP180;4594;50.994;7.126;2023-11-21T09:45:29;100604.00;;;16.00
9119;BMP180;4594;50.994;7.126;2023-11-21T09:48:00;100607.00;;;16.00
9119;BMP180;4594;50.994;7.126;2023-11-21T09:50:26;100597.00;;;16.10
9119;BMP180;4594;50.994;7.126;2023-11-21T09:53:17;100609.00;;;16.10
9119;BMP180;4594;50.994;7.126;2023-11-21T09:55:45;100586.00;;;16.10
9119;BMP180;4594;50.994;7.126;2023-11-21T09:58:13;100602.00;;;16.10
9119;BMP180;4594;50.994;7.126;2023-11-21T10:00:46;100607.00;;;16.20
9119;BMP180;4594;50.994;7.126;2023-11-21T10:03:13;100603.00;;;16.20
9119;BMP180;4594;50.994;7.126;2023-11-21T10:05:42;100611.00;;;16.30
9119;BMP180;4594;50.994;7.126;2023-11-21T10:08:11;100612.00;;;16.30
9119;BMP180;4594;50.994;7.126;2023-11-21T10:10:43;100598.00;;;16.40
9119;BMP180;4594;50.994;7.126;2023-11-21T10:13:12;100589.00;;;16.40
9119;BMP180;4594;50.994;7.126;2023-11-21T10:15:42;100593.00;;;16.50
9119;BMP180;4594;50.994;7.126;2023-11-21T10:18:15;100579.00;;;16.50
9119;BMP180;4594;50.994;7.126;2023-11-21T10:20:41;100605.00;;;16.50
9119;BMP180;4594;50.994;7.126;2023-11-21T10:23:08;100610.00;;;16.60
9119;BMP180;4594;50.994;7.126;2023-11-21T10:25:37;100596.00;;;16.60
9119;BMP180;4594;50.994;7.126;2023-11-21T10:28:04;100615.00;;;16.60
9119;BMP180;4594;50.994;7.126;2023-11-21T10:30:38;100617.00;;;16.60
9119;BMP180;4594;50.994;7.126;2023-11-21T10:33:05;100616.00;;;16.70
9119;BMP180;4594;50.994;7.126;2023-11-21T10:35:46;100614.00;;;16.70
9119;BMP180;4594;50.994;7.126;2023-11-21T10:38:13;100617.00;;;16.70
9119;BMP180;4594;50.994;7.126;2023-11-21T10:40:40;100618.00;;;16.70
9119;BMP180;4594;50.994;7.126;2023-11-21T10:43:10;100609.00;;;16.70
9119;BMP180;4594;50.994;7.126;2023-11-21T10:45:39;100611.00;;;16.70
9119;BMP180;4594;50.994;7.126;2023-11-21T10:48:07;100618.00;;;16.70
9119;BMP180;4594;50.994;7.126;2023-11-21T10:50:41;100619.00;;;16.60
9119;BMP180;4594;50.994;7.126;2023-11-21T10:53:07;100612.00;;;16.70
9119;BMP180;4594;50.994;7.126;2023-11-21T10:55:34;100612.00;;;16.70
9119;BMP180;4594;50.994;7.126;2023-11-21T10:58:03;100626.00;;;16.70
9119;BMP180;4594;50.994;7.126;2023-11-21T11:00:31;100632.00;;;16.70
9119;BMP180;4594;50.994;7.126;2023-11-21T11:02:57;100628.00;;;16.70
9119;BMP180;4594;50.994;7.126;2023-11-21T11:05:26;100617.00;;;16.70
9119;BMP180;4594;50.994;7.126;2023-11-21T11:08:06;100633.00;;;16.70
9119;BMP180;4594;50.994;7.126;2023-11-21T11:10:33;100630.00;;;16.70
9119;BMP180;4594;50.994;7.126;2023-11-21T11:12:59;100639.00;;;16.70
9119;BMP180;4594;50.994;7.126;2023-11-21T11:15:27;100649.00;;;16.70
9119;BMP180;4594;50.994;7.126;2023-11-21T11:17:54;100650.00;;;16.70
9119;BMP180;4594;50.994;7.126;2023-11-21T11:20:30;100635.00;;;16.70
9119;BMP180;4594;50.994;7.126;2023-11-21T11:25:49;100644.00;;;16.80
9119;BMP180;4594;50.994;7.126;2023-11-21T11:28:38;100646.00;;;16.80
9119;BMP180;4594;50.994;7.126;2023-11-21T11:34:35;100644.00;;;16.80
9119;BMP180;4594;50.994;7.126;2023-11-21T11:37:05;100654.00;;;16.80
9119;BMP180;4594;50.994;7.126;2023-11-21T11:39:41;100645.00;;;16.80
9119;BMP180;4594;50.994;7.126;2023-11-21T11:42:16;100651.00;;;16.90
9119;BMP180;4594;50.994;7.126;2023-11-21T11:47:26;100647.00;;;16.90
9119;BMP180;4594;50.994;7.126;2023-11-21T11:52:41;100612.00;;;17.00
9119;BMP180;4594;50.994;7.126;2023-11-21T11:55:12;100650.00;;;17.00
9119;BMP180;4594;50.994;7.126;2023-11-21T11:57:45;100648.00;;;17.00
9119;BMP180;4594;50.994;7.126;2023-11-21T12:02:53;100664.00;;;17.00
9119;BMP180;4594;50.994;7.126;2023-11-21T12:05:21;100659.00;;;17.10
9119;BMP180;4594;50.994;7.126;2023-11-21T12:07:50;100665.00;;;17.10
9119;BMP180;4594;50.994;7.126;2023-11-21T12:10:35;100664.00;;;17.20
9119;BMP180;4594;50.994;7.126;2023-11-21T12:13:05;100667.00;;;17.20
9119;BMP180;4594;50.994;7.126;2023-11-21T12:15:34;100655.00;;;17.20
9119;BMP180;4594;50.994;7.126;2023-11-21T12:18:00;100655.00;;;17.30
9119;BMP180;4594;50.994;7.126;2023-11-21T12:20:27;100667.00;;;17.30
9119;BMP180;4594;50.994;7.126;2023-11-21T12:22:56;100653.00;;;17.30
9119;BMP180;4594;50.994;7.126;2023-11-21T12:25:27;100655.00;;;17.40
9119;BMP180;4594;50.994;7.126;2023-11-21T12:28:00;100674.00;;;17.50
9119;BMP180;4594;50.994;7.126;2023-11-21T12:30:29;100666.00;;;17.50
9119;BMP180;4594;50.994;7.126;2023-11-21T12:32:58;100670.00;;;17.60
9119;BMP180;4594;50.994;7.126;2023-11-21T12:35:27;100678.00;;;17.60
9119;BMP180;4594;50.994;7.126;2023-11-21T12:37:55;100672.00;;;17.60
9119;BMP180;4594;50.994;7.126;2023-11-21T12:40:22;100676.00;;;17.70
9119;BMP180;4594;50.994;7.126;2023-11-21T12:42:53;100679.00;;;17.70
9119;BMP180;4594;50.994;7.126;2023-11-21T12:45:25;100690.00;;;17.80
9119;BMP180;4594;50.994;7.126;2023-11-21T12:48:05;100693.00;;;17.80
9119;BMP180;4594;50.994;7.126;2023-11-21T12:50:35;100686.00;;;17.80
9119;BMP180;4594;50.994;7.126;2023-11-21T12:53:12;100690.00;;;17.80
9119;BMP180;4594;50.994;7.126;2023-11-21T12:55:38;100688.00;;;17.80
9119;BMP180;4594;50.994;7.126;2023-11-21T12:58:09;100689.00;;;17.80
9119;BMP180;4594;50.994;7.126;2023-11-21T13:00:42;100680.00;;;17.80
9119;BMP180;4594;50.994;7.126;2023-11-21T13:03:13;100685.00;;;17.80
9119;BMP180;4594;50.994;7.126;2023-11-21T13:05:43;100688.00;;;17.80
9119;BMP180;4594;50.994;7.126;2023-11-21T13:08:13;100684.00;;;17.70
9119;BMP180;4594;50.994;7.126;2023-11-21T13:10:44;100695.00;;;17.70
9119;BMP180;4594;50.994;7.126;2023-11-21T13:13:13;100626.00;;;17.70
9119;BMP180;4594;50.994;7.126;2023-11-21T13:15:54;100702.00;;;17.70
9119;BMP180;4594;50.994;7.126;2023-11-21T13:18:27;100701.00;;;17.70
9119;BMP180;4594;50.994;7.126;2023-11-21T13:20:54;100696.00;;;17.70
9119;BMP180;4594;50.994;7.126;2023-11-21T13:23:20;100679.00;;;17.80
9119;BMP180;4594;50.994;7.126;2023-11-21T13:25:46;100703.00;;;17.80
9119;BMP180;4594;50.994;7.126;2023-11-21T13:28:13;100703.00;;;17.80
9119;BMP180;4594;50.994;7.126;2023-11-21T13:30:41;100714.00;;;17.80
9119;BMP180;4594;50.994;7.126;2023-11-21T13:33:08;100705.00;;;17.80
9119;BMP180;4594;50.994;7.126;2023-11-21T13:35:38;100705.00;;;17.80
9119;BMP180;4594;50.994;7.126;2023-11-21T13:38:12;100711.00;;;17.80
9119;BMP180;4594;50.994;7.126;2023-11-21T13:40:40;100723.00;;;17.70
9119;BMP180;4594;50.994;7.126;2023-11-21T13:43:10;100724.00;;;17.70
9119;BMP180;4594;50.994;7.126;2023-11-21T13:45:37;100726.00;;;17.80
9119;BMP180;4594;50.994;7.126;2023-11-21T13:48:06;100685.00;;;17.80
9119;BMP180;4594;50.994;7.126;2023-11-21T13:50:36;100732.00;;;17.70
9119;BMP180;4594;50.994;7.126;2023-11-21T13:53:03;100748.00;;;17.70
9119;BMP180;4594;50.994;7.126;2023-11-21T13:55:44;100738.00;;;17.70
9119;BMP180;4594;50.994;7.126;2023-11-21T13:58:11;100738.00;;;17.70
9119;BMP180;4594;50.994;7.126;2023-11-21T14:00:38;100737.00;;;17.70
9119;BMP180;4594;50.994;7.126;2023-11-21T14:03:23;100756.00;;;17.60
9119;BMP180;4594;50.994;7.126;2023-11-21T14:05:58;100754.00;;;17.60
9119;BMP180;4594;50.994;7.126;2023-11-21T14:08:26;100762.00;;;17.50
9119;BMP180;4594;50.994;7.126;2023-11-21T14:10:54;100740.00;;;17.50
9119;BMP180;4594;50.994;7.126;2023-11-21T14:13:25;100757.00;;;17.50
9119;BMP180;4594;50.994;7.126;2023-11-21T14:15:51;100766.00;;;17.50
9119;BMP180;4594;50.994;7.126;2023-11-21T14:18:24;100740.00;;;17.50
9119;BMP180;4594;50.994;7.126;2023-11-21T14:20:59;100750.00;;;17.40
9119;BMP180;4594;50.994;7.126;2023-11-21T14:23:25;100751.00;;;17.40
9119;BMP180;4594;50.994;7.126;2023-11-21T14:25:51;100765.00;;;17.40
9119;BMP180;4594;50.994;7.126;2023-11-21T14:28:18;100749.00;;;17.40
9119;BMP180;4594;50.994;7.126;2023-11-21T14:30:46;100764.00;;;17.30
9119;BMP180;4594;50.994;7.126;2023-11-21T14:33:12;100767.00;;;17.30
9119;BMP180;4594;50.994;7.126;2023-11-21T14:35:38;100767.00;;;17.30
9119;BMP180;4594;50.994;7.126;2023-11-21T14:38:04;100762.00;;;17.30
9119;BMP180;4594;50.994;7.126;2023-11-21T14:40:34;100773.00;;;17.20
9119;BMP180;4594;50.994;7.126;2023-11-21T14:43:02;100772.00;;;17.10